Time;durP1;ratioP1;P1;durP2;ratioP2;P2;SDS_P1;SDS_P2;PMS_P1;PMS_P2;Temp;Humidity;BMP_temperature;BMP_pressure;BME280_temperature;BME280_humidity;BME280_pressure;Samples;Min_cycle;Max_cycle;Signal;HPM_P1;HPM_P2
2022/12/08 00:01:55;;;;;;;1.87;1.63;;;1.30;1.00;;;;;;10523607;28;20272;-81
2022/12/08 00:12:56;;;;;;;3.23;1.80;;;1.30;1.00;;;;;;10509367;28;20236;-81
2022/12/08 00:18:18;;;;;;;1.83;1.60;;;1.40;1.00;;;;;;10523433;28;20201;-81
2022/12/08 00:23:39;;;;;;;2.03;1.40;;;1.40;1.00;;;;;;10508421;28;20562;-81
2022/12/08 00:29:00;;;;;;;3.43;1.20;;;1.30;1.00;;;;;;10508575;28;20197;-81
2022/12/08 00:34:21;;;;;;;2.20;1.50;;;1.30;1.00;;;;;;10508942;28;20431;-86
2022/12/08 00:39:43;;;;;;;1.60;1.40;;;1.30;1.00;;;;;;10523841;28;20264;-82
2022/12/08 00:45:06;;;;;;;2.73;1.57;;;1.30;1.00;;;;;;10512808;28;20485;-81
2022/12/08 00:50:27;;;;;;;3.50;1.50;;;1.30;1.00;;;;;;10534582;28;20245;-85
2022/12/08 00:55:48;;;;;;;2.80;2.00;;;1.20;1.00;;;;;;10550174;28;20189;-81
2022/12/08 01:01:11;;;;;;;2.40;2.00;;;1.20;1.00;;;;;;10536238;28;20206;-86
2022/12/08 01:06:34;;;;;;;3.27;2.53;;;1.20;1.00;;;;;;10507854;28;20511;-84
2022/12/08 01:11:55;;;;;;;2.77;1.90;;;1.10;1.00;;;;;;10521601;28;20200;-81
2022/12/08 01:17:16;;;;;;;3.57;2.03;;;1.10;1.00;;;;;;10507458;28;20214;-81
2022/12/08 01:22:38;;;;;;;3.67;2.07;;;1.10;1.00;;;;;;10520807;28;20277;-80
2022/12/08 01:27:59;;;;;;;1.73;1.30;;;1.10;1.00;;;;;;10509065;28;20308;-80
2022/12/08 01:33:20;;;;;;;2.17;1.50;;;1.20;1.00;;;;;;10531157;28;20197;-81
2022/12/08 01:38:41;;;;;;;2.47;1.40;;;1.20;1.00;;;;;;10537503;28;20200;-80
2022/12/08 01:44:08;;;;;;;1.43;1.33;;;1.20;1.00;;;;;;10506545;28;20470;-80
2022/12/08 01:49:35;;;;;;;2.33;1.47;;;1.10;1.00;;;;;;10505328;28;20226;-80
2022/12/08 01:55:05;;;;;;;1.27;1.17;;;1.20;1.00;;;;;;10505600;28;20239;-80
2022/12/08 02:00:26;;;;;;;2.17;1.10;;;1.10;1.00;;;;;;10504916;28;20192;-81
2022/12/08 02:05:47;;;;;;;2.37;1.40;;;1.10;1.00;;;;;;10504775;28;20411;-80
2022/12/08 02:11:10;;;;;;;1.43;1.13;;;1.10;1.00;;;;;;10504723;28;20272;-79
2022/12/08 02:16:54;;;;;;;1.63;1.50;;;1.10;1.00;;;;;;10518933;28;20211;-82
2022/12/08 02:22:39;;;;;;;1.23;1.00;;;1.10;14.60;;;;;;10505666;28;20337;-81
2022/12/08 02:28:33;;;;;;;1.47;1.33;;;1.10;16.60;;;;;;10504954;28;20217;-86
2022/12/08 02:34:19;;;;;;;2.33;1.60;;;1.00;53.10;;;;;;10505300;28;20193;-81
2022/12/08 02:40:01;;;;;;;1.77;1.43;;;1.00;64.10;;;;;;10504919;28;20208;-81
2022/12/08 02:45:37;;;;;;;1.63;1.53;;;1.00;55.50;;;;;;10490014;28;20227;-81
2022/12/08 02:50:58;;;;;;;1.63;1.30;;;1.00;32.40;;;;;;10504491;28;20198;-80
2022/12/08 02:56:41;;;;;;;2.53;1.77;;;1.00;38.70;;;;;;10504576;28;20203;-81
2022/12/08 03:02:03;;;;;;;1.70;1.20;;;1.00;2.00;;;;;;10519860;28;20217;-81
2022/12/08 03:07:37;;;;;;;0.90;0.87;;;1.00;1.00;;;;;;10547454;28;20196;-82
2022/12/08 03:13:08;;;;;;;1.03;1.00;;;1.10;1.00;;;;;;10507190;28;20193;-81
2022/12/08 03:18:33;;;;;;;1.00;0.80;;;1.00;1.00;;;;;;10518067;28;20228;-80
2022/12/08 03:23:56;;;;;;;1.30;1.17;;;1.00;1.00;;;;;;10517460;28;20264;-88
2022/12/08 03:29:18;;;;;;;1.37;0.90;;;0.90;1.00;;;;;;10521301;28;20199;-84
2022/12/08 03:34:42;;;;;;;1.20;1.10;;;1.00;1.00;;;;;;10524721;28;20209;-81
2022/12/08 03:40:08;;;;;;;1.37;1.00;;;0.90;1.00;;;;;;10510386;28;20271;-80
2022/12/08 03:45:30;;;;;;;0.87;0.60;;;0.90;1.00;;;;;;10523824;28;20228;-80
2022/12/08 03:50:51;;;;;;;1.13;0.90;;;0.90;1.00;;;;;;10509948;28;20200;-80
2022/12/08 03:56:28;;;;;;;1.00;0.77;;;0.90;1.00;;;;;;10487217;28;20224;-80
2022/12/08 04:01:49;;;;;;;0.80;0.80;;;0.90;1.00;;;;;;10485140;28;20607;-80
2022/12/08 04:07:10;;;;;;;2.80;1.00;;;0.90;1.00;;;;;;10523457;28;20276;-80
2022/12/08 04:12:31;;;;;;;1.33;0.80;;;0.80;1.00;;;;;;10537098;28;20460;-79
2022/12/08 04:17:53;;;;;;;2.83;0.97;;;0.80;1.00;;;;;;10495623;28;20388;-80
2022/12/08 04:23:14;;;;;;;1.40;1.30;;;0.80;1.00;;;;;;10482272;28;20404;-80
2022/12/08 04:28:35;;;;;;;3.03;1.10;;;0.70;1.00;;;;;;10472409;28;20492;-80
2022/12/08 04:33:56;;;;;;;2.53;1.00;;;0.70;1.00;;;;;;10508657;28;20201;-80
2022/12/08 04:39:17;;;;;;;3.17;1.73;;;0.70;1.00;;;;;;10508062;28;20214;-80
2022/12/08 04:44:38;;;;;;;1.50;1.40;;;0.70;1.00;;;;;;10521893;28;20225;-81
2022/12/08 04:50:00;;;;;;;3.30;1.40;;;0.70;1.00;;;;;;10507789;28;20201;-82
2022/12/08 04:55:21;;;;;;;1.30;1.10;;;0.80;1.00;;;;;;10507892;28;20223;-86
2022/12/08 05:00:43;;;;;;;1.90;1.30;;;0.70;1.00;;;;;;10507303;28;20370;-81
2022/12/08 05:06:04;;;;;;;3.37;1.90;;;0.70;1.00;;;;;;10492716;28;20228;-81
2022/12/08 05:11:26;;;;;;;1.20;1.10;;;0.70;1.00;;;;;;10523572;28;20197;-84
2022/12/08 05:16:47;;;;;;;10.57;4.10;;;0.70;1.00;;;;;;10497224;28;20415;-83
2022/12/08 05:22:08;;;;;;;4.53;3.10;;;0.60;1.00;;;;;;10506620;28;20255;-81
2022/12/08 05:27:32;;;;;;;4.93;2.87;;;0.80;1.00;;;;;;10512979;28;20207;-80
2022/12/08 05:32:54;;;;;;;3.23;1.73;;;0.80;1.00;;;;;;10515415;28;20201;-80
2022/12/08 05:38:15;;;;;;;3.30;1.40;;;0.80;1.00;;;;;;10506942;28;20204;-81
2022/12/08 05:43:36;;;;;;;3.77;2.70;;;0.80;1.00;;;;;;10520128;28;20276;-80
2022/12/08 05:49:01;;;;;;;12.73;5.63;;;0.90;1.00;;;;;;10522785;28;20356;-86
2022/12/08 05:54:23;;;;;;;16.27;6.33;;;0.90;1.00;;;;;;10522550;28;20202;-87
2022/12/08 05:59:44;;;;;;;13.83;6.77;;;0.80;1.00;;;;;;10505850;28;20203;-85
2022/12/08 06:05:06;;;;;;;5.07;3.17;;;0.70;1.00;;;;;;10505441;28;20310;-80
2022/12/08 06:10:27;;;;;;;13.03;5.57;;;0.60;1.00;;;;;;10505802;28;20202;-81
2022/12/08 06:15:49;;;;;;;20.70;7.57;;;0.60;1.00;;;;;;10521097;28;20205;-84
2022/12/08 06:21:12;;;;;;;12.80;5.27;;;0.60;1.00;;;;;;10513883;28;20232;-81
2022/12/08 06:26:35;;;;;;;15.50;6.33;;;0.50;1.00;;;;;;10530153;28;20263;-82
2022/12/08 06:31:56;;;;;;;12.03;5.93;;;0.50;1.00;;;;;;10507530;28;20205;-83
2022/12/08 06:37:18;;;;;;;11.20;5.03;;;0.30;1.00;;;;;;10505430;28;20215;-88
2022/12/08 06:42:46;;;;;;;13.13;6.43;;;0.20;1.00;;;;;;10505082;28;20280;-82
2022/12/08 06:48:07;;;;;;;8.00;5.40;;;0.10;1.00;;;;;;10504463;28;20203;-89
2022/12/08 06:53:29;;;;;;;7.13;3.90;;;0.10;1.00;;;;;;10518984;28;20195;-83
2022/12/08 06:58:50;;;;;;;7.67;3.67;;;0.20;1.00;;;;;;10463995;28;20292;-81
2022/12/08 07:04:12;;;;;;;6.33;4.17;;;0.10;1.00;;;;;;10519780;28;20211;-85
2022/12/08 07:09:33;;;;;;;8.40;5.30;;;0.10;1.00;;;;;;10498911;28;20203;-85
2022/12/08 07:14:55;;;;;;;8.20;4.90;;;0.10;1.00;;;;;;10512576;28;20279;-82
2022/12/08 07:20:16;;;;;;;6.73;3.17;;;0.10;1.00;;;;;;10497555;28;20262;-81
2022/12/08 07:25:38;;;;;;;9.77;4.27;;;0.20;1.00;;;;;;10511219;28;20234;-84
2022/12/08 07:31:00;;;;;;;8.53;4.00;;;0.20;1.00;;;;;;10497950;28;20275;-82
2022/12/08 07:36:22;;;;;;;16.97;6.47;;;0.20;1.00;;;;;;10510498;28;20212;-82
2022/12/08 07:41:43;;;;;;;11.77;5.90;;;0.30;1.00;;;;;;10520878;28;20219;-82
2022/12/08 07:47:05;;;;;;;11.20;4.60;;;0.40;1.00;;;;;;10511768;28;20277;-81
2022/12/08 07:52:26;;;;;;;8.23;4.37;;;0.40;1.00;;;;;;10511320;28;20272;-83
2022/12/08 07:57:49;;;;;;;7.30;4.67;;;0.50;1.00;;;;;;10478976;28;20515;-80
2022/12/08 08:03:11;;;;;;;6.47;3.53;;;0.60;1.00;;;;;;10498301;28;20232;-79
2022/12/08 08:08:32;;;;;;;11.87;6.30;;;0.60;99.90;;;;;;10503356;28;20291;-80
2022/12/08 08:13:55;;;;;;;13.93;7.33;;;0.70;99.90;;;;;;10538017;28;20383;-80
2022/12/08 08:19:16;;;;;;;12.93;6.97;;;0.70;99.90;;;;;;10494551;28;20205;-81
2022/12/08 08:24:38;;;;;;;18.30;10.10;;;0.70;99.90;;;;;;10522698;28;20259;-81
2022/12/08 08:30:03;;;;;;;16.63;10.07;;;0.70;99.90;;;;;;10522559;28;20202;-81
2022/12/08 08:35:24;;;;;;;16.33;9.10;;;0.70;99.90;;;;;;10514637;28;20227;-81
2022/12/08 08:40:46;;;;;;;10.70;6.17;;;0.70;99.90;;;;;;10498993;28;20205;-81
2022/12/08 08:46:08;;;;;;;20.57;10.30;;;0.70;99.90;;;;;;10489349;28;20221;-82
2022/12/08 08:51:30;;;;;;;17.63;9.13;;;0.80;99.90;;;;;;10496939;28;20193;-81
2022/12/08 08:56:52;;;;;;;11.07;7.00;;;0.80;99.90;;;;;;10505771;28;20202;-87
2022/12/08 09:02:16;;;;;;;14.67;8.33;;;0.80;99.90;;;;;;10500496;28;20217;-80
2022/12/08 09:07:39;;;;;;;10.27;6.53;;;0.80;99.90;;;;;;10496352;28;20209;-82
2022/12/08 09:13:00;;;;;;;15.47;7.37;;;0.90;99.90;;;;;;10515250;28;20196;-81
2022/12/08 09:18:21;;;;;;;21.80;12.10;;;0.80;99.90;;;;;;10501169;28;20213;-81
2022/12/08 09:23:42;;;;;;;34.63;17.13;;;0.80;99.90;;;;;;10515196;28;20260;-80
2022/12/08 09:29:05;;;;;;;42.17;16.97;;;0.80;99.90;;;;;;10500001;28;20256;-81
2022/12/08 09:34:26;;;;;;;29.17;13.50;;;0.90;99.90;;;;;;10486019;28;20209;-89
2022/12/08 09:39:47;;;;;;;32.10;14.83;;;0.90;99.90;;;;;;10501459;28;20202;-81
2022/12/08 09:45:12;;;;;;;35.00;15.53;;;1.00;99.90;;;;;;10481017;28;20423;-81
2022/12/08 09:50:51;;;;;;;31.23;13.03;;;0.90;99.90;;;;;;10500367;28;20265;-82
2022/12/08 09:56:21;;;;;;;57.53;19.67;;;1.00;99.90;;;;;;10449689;28;20206;-83
2022/12/08 10:01:43;;;;;;;44.53;22.87;;;1.00;12.50;;;;;;10479418;28;20204;-81
2022/12/08 10:07:40;;;;;;;20.47;12.00;;;1.00;58.60;;;;;;10489140;28;20208;-82
2022/12/08 10:13:23;;;;;;;66.40;25.43;;;0.80;1.00;;;;;;10503669;28;20232;-81
2022/12/08 10:18:45;;;;;;;34.73;17.10;;;0.90;1.00;;;;;;10502759;28;20205;-81
2022/12/08 10:24:22;;;;;;;30.07;13.33;;;1.00;1.00;;;;;;10500240;28;20241;-82
2022/12/08 10:29:45;;;;;;;41.83;15.30;;;1.10;1.00;;;;;;10491269;28;20194;-88
2022/12/08 10:35:10;;;;;;;29.37;14.00;;;1.30;1.00;;;;;;10497577;28;20282;-82
2022/12/08 10:40:36;;;;;;;380.50;116.03;;;1.20;99.90;;;;;;10509557;28;20258;-83
2022/12/08 10:46:13;;;;;;;50.40;20.40;;;1.30;1.00;;;;;;10525541;28;20293;-82
2022/12/08 10:51:42;;;;;;;34.60;12.37;;;1.30;99.90;;;;;;10521061;28;20275;-81
2022/12/08 10:57:03;;;;;;;25.83;13.90;;;1.20;1.00;;;;;;10512079;28;20199;-85
2022/12/08 11:02:24;;;;;;;14.27;9.50;;;1.10;99.90;;;;;;10509564;28;20203;-83
2022/12/08 11:07:50;;;;;;;14.30;8.93;;;1.10;1.00;;;;;;10507537;28;20209;-82
2022/12/08 11:13:39;;;;;;;55.33;24.50;;;1.00;1.00;;;;;;10506950;28;20396;-88
2022/12/08 11:19:05;;;;;;;34.70;16.50;;;1.00;99.90;;;;;;10490103;28;20206;-84
2022/12/08 11:24:28;;;;;;;35.53;16.47;;;0.90;1.00;;;;;;10493510;28;20303;-86
2022/12/08 11:29:52;;;;;;;23.43;11.33;;;1.00;1.00;;;;;;10497607;28;20193;-83
2022/12/08 11:35:31;;;;;;;21.40;11.67;;;1.00;1.00;;;;;;10488172;28;20229;-83
2022/12/08 11:41:05;;;;;;;21.37;13.10;;;0.80;1.00;;;;;;10495262;28;20207;-84
2022/12/08 11:46:33;;;;;;;20.50;12.00;;;0.70;1.00;;;;;;10518113;28;20419;-88
2022/12/08 11:52:04;;;;;;;21.73;14.03;;;0.80;1.00;;;;;;10525154;28;20233;-89
2022/12/08 11:57:28;;;;;;;14.13;9.00;;;0.90;1.00;;;;;;10480486;28;20226;-90
2022/12/08 12:02:58;;;;;;;9.87;6.10;;;1.00;1.00;;;;;;10510894;28;20401;-89
2022/12/08 12:08:38;;;;;;;8.13;5.53;;;1.00;1.00;;;;;;10523633;28;20328;-86
2022/12/08 12:14:17;;;;;;;29.13;16.57;;;0.90;1.00;;;;;;10515867;28;20615;-85
2022/12/08 12:19:41;;;;;;;17.50;10.87;;;0.90;1.00;;;;;;10481780;28;20193;-91
2022/12/08 12:25:04;;;;;;;11.87;8.40;;;0.90;1.00;;;;;;10468814;28;20520;-87
2022/12/08 12:30:30;;;;;;;6.50;5.07;;;0.90;1.00;;;;;;10500013;28;20194;-85
2022/12/08 12:36:08;;;;;;;13.10;8.97;;;0.60;1.00;;;;;;10497234;28;20208;-90
2022/12/08 12:41:53;;;;;;;21.33;13.93;;;0.70;1.00;;;;;;10492487;28;20519;-85
2022/12/08 12:47:47;;;;;;;22.37;14.80;;;0.60;1.00;;;;;;10509119;28;20224;-83
2022/12/08 12:53:15;;;;;;;16.27;10.97;;;0.60;1.00;;;;;;10526492;28;20221;-89
2022/12/08 12:58:42;;;;;;;18.53;12.47;;;0.60;1.00;;;;;;10492998;28;20226;-82
2022/12/08 13:04:09;;;;;;;22.60;10.93;;;0.60;1.00;;;;;;10497936;22;20513;-92
2022/12/08 13:09:40;;;;;;;34.67;21.93;;;0.50;9.80;;;;;;10407905;28;20280;-89
2022/12/08 13:15:21;;;;;;;17.13;10.13;;;0.60;1.00;;;;;;10426115;28;20222;-88
2022/12/08 13:21:08;;;;;;;16.53;11.97;;;0.60;1.00;;;;;;10442855;28;20206;-92
2022/12/08 13:27:08;;;;;;;20.20;12.30;;;0.70;1.00;;;;;;10429627;28;20226;-91
2022/12/08 13:33:01;;;;;;;15.43;10.33;;;0.60;1.00;;;;;;10399368;28;20212;-90
2022/12/08 13:38:38;;;;;;;20.57;10.80;;;0.60;8.50;;;;;;10425477;28;20513;-90
2022/12/08 13:44:05;;;;;;;14.07;9.33;;;0.50;1.00;;;;;;10390355;28;20236;-83
2022/12/08 13:50:09;;;;;;;13.03;8.93;;;0.50;1.00;;;;;;10405338;28;20444;-83
2022/12/08 13:55:55;;;;;;;27.67;13.17;;;0.50;21.40;;;;;;10421657;28;20221;-89
2022/12/08 14:01:45;;;;;;;17.83;9.53;;;0.50;23.80;;;;;;10419630;28;20227;-87
2022/12/08 14:07:09;;;;;;;69.60;36.53;;;0.60;64.50;;;;;;10390008;28;20243;-85
2022/12/08 14:12:31;;;;;;;31.00;21.03;;;0.60;82.00;;;;;;10413934;28;20250;-86
2022/12/08 14:17:56;;;;;;;36.87;21.73;;;0.60;59.80;;;;;;10384169;28;20203;-88
2022/12/08 14:23:17;;;;;;;59.50;29.43;;;0.70;94.80;;;;;;10425373;28;20240;-83
2022/12/08 14:28:49;;;;;;;42.43;24.73;;;0.80;92.80;;;;;;10425477;28;20282;-89
2022/12/08 14:34:11;;;;;;;44.77;26.13;;;0.90;90.80;;;;;;10398293;28;20207;-86
2022/12/08 14:39:32;;;;;;;51.97;30.47;;;0.80;73.80;;;;;;10434216;28;20234;-86
2022/12/08 14:45:14;;;;;;;40.27;24.50;;;0.90;99.90;;;;;;10420967;28;20311;-85
2022/12/08 14:50:44;;;;;;;27.90;16.57;;;0.90;78.90;;;;;;10410448;28;20183;-85
2022/12/08 14:56:52;;;;;;;27.53;14.13;;;0.90;57.80;;;;;;10446234;28;20211;-84
2022/12/08 15:02:23;;;;;;;28.20;15.60;;;0.80;95.40;;;;;;10450736;28;20195;-86
2022/12/08 15:07:53;;;;;;;28.83;15.93;;;0.80;98.20;;;;;;10381279;28;20219;-82
2022/12/08 15:13:15;;;;;;;29.83;16.27;;;0.70;99.90;;;;;;10423304;28;20219;-82
2022/12/08 15:18:39;;;;;;;32.70;17.93;;;0.70;99.90;;;;;;10402382;28;20299;-80
2022/12/08 15:24:00;;;;;;;37.27;20.53;;;0.70;99.90;;;;;;10388228;28;20293;-82
2022/12/08 15:29:27;;;;;;;36.93;22.50;;;0.60;99.90;;;;;;10394228;28;20230;-83
2022/12/08 15:34:49;;;;;;;40.63;22.13;;;0.70;99.90;;;;;;10413400;28;20216;-82
2022/12/08 15:40:16;;;;;;;39.40;21.40;;;0.60;99.90;;;;;;10397769;28;20201;-83
2022/12/08 15:45:39;;;;;;;34.30;19.67;;;0.60;99.90;;;;;;10412979;28;20302;-89
2022/12/08 15:51:03;;;;;;;36.20;21.20;;;0.60;99.90;;;;;;10440440;28;20199;-82
2022/12/08 15:56:24;;;;;;;40.53;21.93;;;0.70;99.90;;;;;;10394476;28;20271;-82
2022/12/08 16:01:47;;;;;;;35.93;21.50;;;0.70;99.90;;;;;;10403405;28;20192;-83
2022/12/08 16:07:27;;;;;;;33.77;21.90;;;0.70;99.90;;;;;;10411770;28;20251;-82
2022/12/08 16:18:49;;;;;;;35.07;20.63;;;0.90;99.90;;;;;;10422217;28;20206;-79
2022/12/08 16:24:10;;;;;;;42.67;25.37;;;0.80;99.90;;;;;;10408108;28;20227;-79
2022/12/08 16:29:31;;;;;;;54.33;29.70;;;0.90;99.90;;;;;;10420332;28;20238;-79
2022/12/08 16:34:59;;;;;;;45.23;28.23;;;0.80;99.90;;;;;;10406978;28;20250;-81
2022/12/08 16:40:30;;;;;;;36.27;23.03;;;0.90;99.90;;;;;;10410513;28;20245;-78
2022/12/08 16:45:52;;;;;;;40.57;26.77;;;0.90;99.90;;;;;;10425555;28;20230;-78
2022/12/08 16:51:33;;;;;;;48.70;29.80;;;0.90;99.90;;;;;;10433347;28;20203;-81
2022/12/08 16:57:02;;;;;;;53.33;30.47;;;1.10;99.90;;;;;;10411519;28;20201;-79
2022/12/08 17:02:23;;;;;;;184.03;78.67;;;1.10;99.90;;;;;;10455233;28;20386;-80
2022/12/08 17:08:05;;;;;;;101.53;49.57;;;1.20;99.90;;;;;;10415803;28;20208;-80
2022/12/08 17:13:46;;;;;;;70.43;36.07;;;1.30;99.90;;;;;;10416239;28;20402;-80
2022/12/08 17:19:27;;;;;;;63.67;33.67;;;1.30;99.90;;;;;;10439322;28;20510;-80
2022/12/08 17:25:09;;;;;;;48.60;25.33;;;1.40;99.90;;;;;;10416281;28;20238;-81
2022/12/08 17:30:30;;;;;;;54.53;27.97;;;1.50;99.90;;;;;;10424726;28;20238;-82
2022/12/08 17:35:53;;;;;;;30.73;20.70;;;1.50;99.90;;;;;;10407358;28;20214;-82
2022/12/08 17:41:14;;;;;;;31.57;20.60;;;1.50;99.90;;;;;;10421876;28;20199;-80
2022/12/08 17:46:35;;;;;;;31.57;20.93;;;1.40;99.90;;;;;;10411341;28;20284;-81
2022/12/08 17:52:03;;;;;;;42.13;26.33;;;1.40;99.90;;;;;;10421686;28;20205;-80
2022/12/08 17:57:24;;;;;;;43.17;23.17;;;1.50;99.90;;;;;;10423653;28;20193;-80
2022/12/08 18:02:45;;;;;;;34.80;19.07;;;1.50;99.90;;;;;;10423436;28;20264;-81
2022/12/08 18:08:07;;;;;;;20.57;15.13;;;1.50;99.90;;;;;;10406701;28;20340;-78
2022/12/08 18:13:28;;;;;;;29.37;18.83;;;1.50;99.90;;;;;;10409199;28;20281;-79
2022/12/08 18:18:49;;;;;;;15.87;11.87;;;1.50;99.90;;;;;;10393785;28;20282;-79
2022/12/08 18:24:20;;;;;;;19.27;12.30;;;1.60;99.90;;;;;;10406986;28;20418;-82
2022/12/08 18:30:00;;;;;;;19.80;12.17;;;1.60;99.90;;;;;;10414719;28;20429;-79
2022/12/08 18:35:22;;;;;;;16.07;11.03;;;1.60;99.90;;;;;;10420726;28;20204;-80
2022/12/08 18:40:45;;;;;;;24.47;14.60;;;1.60;99.90;;;;;;10392988;28;20211;-81
2022/12/08 18:46:08;;;;;;;17.53;11.37;;;1.50;99.90;;;;;;10419942;28;20238;-83
2022/12/08 18:51:29;;;;;;;16.03;10.20;;;1.60;99.90;;;;;;10421900;28;20199;-82
2022/12/08 18:56:51;;;;;;;11.80;8.90;;;1.60;99.90;;;;;;10449009;28;20206;-83
2022/12/08 19:02:12;;;;;;;12.60;9.70;;;1.50;99.90;;;;;;10449976;28;20445;-81
2022/12/08 19:07:33;;;;;;;15.10;8.73;;;1.60;99.90;;;;;;10413484;28;20462;-80
2022/12/08 19:12:55;;;;;;;13.80;9.90;;;1.60;99.90;;;;;;10426842;28;20234;-80
2022/12/08 19:18:16;;;;;;;19.23;10.90;;;1.60;99.90;;;;;;10421725;28;20269;-80
2022/12/08 19:23:38;;;;;;;17.40;11.20;;;1.60;99.90;;;;;;10421037;28;20231;-82
2022/12/08 19:29:00;;;;;;;24.27;13.10;;;1.60;99.90;;;;;;10415511;28;20230;-79
2022/12/08 19:34:21;;;;;;;25.53;14.43;;;1.50;99.90;;;;;;10430433;28;20415;-83
2022/12/08 19:45:22;;;;;;;34.17;19.00;;;1.20;72.60;;;;;;10413626;28;20222;-80
2022/12/08 19:50:43;;;;;;;36.63;20.83;;;0.90;27.40;;;;;;10430239;28;20208;-79
2022/12/08 19:56:05;;;;;;;30.07;17.80;;;0.60;21.90;;;;;;10412113;28;20204;-79
2022/12/08 20:01:26;;;;;;;29.53;15.50;;;0.30;1.00;;;;;;10444972;28;20210;-85
2022/12/08 20:06:49;;;;;;;23.33;14.30;;;0.10;47.70;;;;;;10438723;28;20252;-80
2022/12/08 20:12:11;;;;;;;22.03;13.73;;;0.20;99.90;;;;;;10421252;28;20191;-79
2022/12/08 20:17:32;;;;;;;19.70;12.27;;;0.20;99.90;;;;;;10434962;28;20198;-81
2022/12/08 20:22:56;;;;;;;19.17;12.23;;;0.40;99.90;;;;;;10450322;28;20206;-80
2022/12/08 20:28:18;;;;;;;23.60;14.70;;;0.50;99.90;;;;;;10430698;28;20299;-80
2022/12/08 20:33:39;;;;;;;39.10;21.83;;;0.60;99.90;;;;;;10431744;28;20206;-80
2022/12/08 20:39:00;;;;;;;28.20;16.77;;;0.60;99.90;;;;;;10448043;28;20199;-79
2022/12/08 20:44:22;;;;;;;26.93;16.63;;;0.70;99.90;;;;;;10444437;28;20225;-80
2022/12/08 20:49:43;;;;;;;23.57;14.23;;;0.70;99.90;;;;;;10450966;28;20274;-81
2022/12/08 20:55:07;;;;;;;26.27;14.63;;;0.70;98.80;;;;;;10443378;28;20426;-86
2022/12/08 21:00:28;;;;;;;26.00;15.03;;;0.70;76.70;;;;;;10425946;28;20501;-82
2022/12/08 21:05:50;;;;;;;26.23;15.37;;;0.80;94.00;;;;;;10408505;28;20429;-80
2022/12/08 21:11:12;;;;;;;25.53;14.67;;;0.80;73.30;;;;;;10408912;28;20497;-90
2022/12/08 21:16:33;;;;;;;24.50;14.27;;;0.90;92.00;;;;;;10422965;28;20209;-91
2022/12/08 21:21:54;;;;;;;25.93;13.90;;;0.90;60.80;;;;;;10426304;28;20214;-79
2022/12/08 21:27:16;;;;;;;22.90;12.77;;;0.90;49.50;;;;;;10408241;28;20384;-80
2022/12/08 21:32:39;;;;;;;24.03;13.90;;;0.90;23.40;;;;;;10408854;28;20203;-80
2022/12/08 21:38:00;;;;;;;37.43;19.20;;;0.90;21.50;;;;;;10430169;28;20188;-80
2022/12/08 21:43:24;;;;;;;37.83;19.83;;;0.90;33.90;;;;;;10418619;28;20387;-82
2022/12/08 21:48:47;;;;;;;21.17;13.20;;;0.80;1.00;;;;;;10436621;28;20200;-90
2022/12/08 21:54:10;;;;;;;22.13;12.10;;;0.70;1.00;;;;;;10418864;28;20441;-84
2022/12/08 21:59:34;;;;;;;25.50;14.00;;;0.70;1.00;;;;;;10463247;28;20203;-82
2022/12/08 22:04:55;;;;;;;14.23;9.60;;;0.70;1.00;;;;;;10404577;28;20245;-81
2022/12/08 22:10:17;;;;;;;12.33;7.73;;;0.70;1.00;;;;;;10445028;28;20254;-81
2022/12/08 22:15:38;;;;;;;14.43;9.27;;;0.50;1.00;;;;;;10406325;28;20557;-80
2022/12/08 22:21:00;;;;;;;16.67;9.77;;;0.50;1.00;;;;;;10419902;28;20202;-80
2022/12/08 22:26:21;;;;;;;22.20;11.77;;;0.50;1.00;;;;;;10422792;28;20226;-83
2022/12/08 22:31:44;;;;;;;20.20;12.23;;;0.50;1.00;;;;;;10405855;28;20198;-85
2022/12/08 22:37:05;;;;;;;18.73;11.13;;;0.50;1.00;;;;;;10405259;28;20214;-81
2022/12/08 22:42:26;;;;;;;12.83;8.60;;;0.50;1.00;;;;;;10408607;28;20185;-83
2022/12/08 22:47:48;;;;;;;10.83;7.87;;;0.50;1.00;;;;;;10436130;28;20270;-82
2022/12/08 22:53:11;;;;;;;11.53;8.00;;;0.40;1.00;;;;;;10421986;28;20190;-84
2022/12/08 22:58:33;;;;;;;13.20;8.87;;;0.50;1.00;;;;;;10434845;28;20202;-79
2022/12/08 23:03:54;;;;;;;13.70;9.13;;;0.50;1.00;;;;;;10442173;28;20237;-82
2022/12/08 23:09:15;;;;;;;17.90;10.43;;;0.50;1.00;;;;;;10391541;28;20237;-83
2022/12/08 23:14:36;;;;;;;13.20;10.03;;;0.50;1.00;;;;;;10436644;28;20523;-81
2022/12/08 23:19:57;;;;;;;22.63;12.27;;;0.40;1.00;;;;;;10404875;28;20448;-80
2022/12/08 23:25:19;;;;;;;21.47;12.27;;;0.50;1.00;;;;;;10391295;28;20252;-80
2022/12/08 23:30:40;;;;;;;16.00;10.30;;;0.50;1.00;;;;;;10391410;28;20422;-82
2022/12/08 23:36:02;;;;;;;15.13;10.40;;;0.50;1.00;;;;;;10421239;28;20189;-81
2022/12/08 23:41:23;;;;;;;11.80;8.60;;;0.60;1.00;;;;;;10404731;28;20203;-85
2022/12/08 23:46:44;;;;;;;15.93;9.77;;;0.50;1.00;;;;;;10424558;28;20385;-80
2022/12/08 23:52:05;;;;;;;15.20;9.77;;;0.50;1.00;;;;;;10412349;28;20226;-84
2022/12/08 23:57:27;;;;;;;16.00;8.53;;;0.60;1.00;;;;;;10420660;28;20199;-88
